Latest Coastal Weather Observations for Gabo Island

IDT60701

Issued at 3:12 pm EDT Thursday 5 March 2015 (issued every 10 minutes, with the page automatically refreshed every 10 minutes)

About coastal observations | Map of coastal stations | Coastal observations for TAS | Marine services | Other Formats
Station Details ID: 084016 Name: GABO ISLAND LIGHTHOUSE Lat: -37.57 Lon: 149.92 Height: 15.2 m
Data from the previous 72 hours. | See also: Recent months at Gabo Island
Date/Time
EDT
Temp

°C
Wind Pressure Rain
since 9am
mm
Weather Cloud Vis
km
Sea
Height
m
Swell
Dir
 
Speed
knots
Gust
knots
hPa Trend Height
m
Period
s
Dir
05/03:01pm 16.4 WSW 35 45 1010.6 - 0.0 - - - - - - -
05/03:00pm 16.2 WSW 37 45 1010.5 - 0.0 Fine Mostly clear 10 5 3.0 - SW
05/02:33pm 16.7 WSW 35 47 1010.5 - 0.0 - - - - - - -
05/02:30pm 16.9 WSW 34 43 1010.6 - 0.0 - - - - - - -
05/02:00pm 16.3 WSW 38 48 1010.9 - 0.0 - - - - - - -
05/01:58pm 15.9 WSW 39 49 1010.8 - 0.0 - - - - - - -
05/01:51pm 15.2 WSW 43 49 1010.7 - 0.0 - - - - - - -
05/01:30pm 16.4 WSW 32 43 1010.5 - 0.0 - - - - - - -
05/01:07pm 15.9 W 30 42 1011.0 - 0.0 - - - - - - -
05/01:00pm 15.8 W 28 37 1011.1 - 0.0 - - - - - - -
05/12:53pm 15.2 W 26 42 1011.3 - 0.0 - - - - - - -
05/12:30pm 15.5 WSW 37 47 1011.0 - 0.0 - - - - - - -
05/12:15pm 15.2 W 31 41 1011.0 - 0.0 - - - - - - -
05/12:00pm 15.3 W 29 38 1011.0 - 0.0 - - - - - - -
05/11:30am 14.9 W 31 39 1010.5 - 0.0 - - - - - - -
05/11:00am 15.2 WSW 31 41 1009.9 - 0.0 - - - - - - -
05/10:30am 14.5 WSW 35 45 1009.2 - 0.0 - - - - - - -
05/10:00am 14.3 WSW 39 56 1008.9 - 0.0 - - - - - - -
05/09:59am 14.4 WSW 39 56 1008.8 - 0.0 - - - - - - -
05/09:30am 16.2 WSW 35 46 1008.3 - 0.0 - - - - - - -
05/09:00am 15.7 WSW 43 60 1007.8 - 0.0 Fine Partly cloudy 7 5 4.0 - SW
05/08:30am 15.7 WSW 40 51 1007.5 - 0.0 - - - - - - -
05/08:12am 15.4 WSW 35 57 1007.3 - 0.0 - - - - - - -
05/08:00am 15.1 WSW 34 45 1007.4 - 0.0 - - - - - - -
05/07:42am 14.8 WSW 33 43 1007.1 - 0.0 - - - - - - -
05/07:30am 14.7 WSW 34 57 1006.6 - 0.0 - - - - - - -
05/07:00am 15.2 SW 45 57 1005.5 - 0.0 - - - - - - -
05/06:50am 16.1 SW 42 55 1004.9 - 0.0 - - - - - - -
05/06:47am 17.5 WSW 27 51 1005.0 - 0.0 - - - - - - -
05/06:38am 17.2 W 15 25 1004.5 - 0.0 - - - - - - -
05/06:30am 17.0 W 14 19 1004.3 - 0.0 - - - - - - -
05/06:00am 16.3 WNW 8 11 1003.8 - 0.0 - - - - - - -
05/05:30am 16.1 WNW 7 9 1003.6 - 0.0 - - - - - - -
05/05:00am 16.4 W 10 12 1004.0 - 0.0 - - - - - - -
05/04:30am 17.1 WSW 10 12 1004.0 - 0.0 - - - - - - -
05/04:00am 16.9 W 8 10 1003.9 - 0.0 - - - - - - -
05/03:30am 16.6 WNW 6 8 1003.9 - 0.0 - - - - - - -
05/03:00am 17.4 WNW 6 7 1004.1 - 0.0 - - - - - - -
05/02:30am 17.5 WNW 6 7 1004.6 - 0.0 - - - - - - -
05/02:00am 17.4 W 6 8 1005.2 - 0.0 - - - - - - -
05/01:30am 17.8 WNW 5 5 1005.8 - 0.0 - - - - - - -
05/01:00am 18.1 WNW 5 7 1006.4 - 0.0 - - - - - - -
05/12:30am 18.1 WNW 5 6 1006.6 - 0.0 - - - - - - -
05/12:00am 18.0 NW 5 5 1007.0 - 0.0 - - - - - - -
 
Date/Time
EDT
Temp

°C
Wind Pressure Rain
since 9am
mm
Weather Cloud Vis
km
Sea
Height
m
Swell
Dir
 
Speed
knots
Gust
knots
hPa Trend Height
m
Period
s
Dir
04/11:30pm 18.2 NW 4 5 1007.6 - 0.0 - - - - - - -
04/11:00pm 18.3 NW 4 5 1008.3 - 0.0 - - - - - - -
04/10:30pm 18.3 NW 4 4 1008.9 - 0.0 - - - - - - -
04/10:00pm 18.6 WNW 4 5 1009.4 - 0.0 - - - - - - -
04/09:30pm 18.8 SW 3 4 1009.8 - 0.0 - - - - - - -
04/09:00pm 19.0 SSW 5 5 1009.6 - 0.0 Fine Cloudy 30 <0.1 1.0 - S
04/08:30pm 18.9 S 6 8 1009.7 - 0.0 - - - - - - -
04/08:00pm 18.9 S 8 9 1009.8 - 0.0 - - - - - - -
04/07:30pm 19.0 S 7 8 1009.6 - 0.0 - - - - - - -
04/07:00pm 19.2 S 6 7 1009.5 - 0.0 - - - - - - -
04/06:30pm 19.5 S 6 7 1009.4 - 0.0 - - - - - - -
04/06:00pm 20.1 S 6 7 1009.4 - 0.0 - - - - - - -
04/05:30pm 20.3 S 8 9 1009.7 - 0.0 - - - - - - -
04/05:00pm 20.6 S 9 10 1009.8 - 0.0 - - - - - - -
04/04:30pm 21.2 SSW 8 9 1009.8 - 0.0 - - - - - - -
04/04:00pm 21.0 S 7 8 1010.0 - 0.0 - - - - - - -
04/03:30pm 21.1 S 9 11 1010.5 - 0.0 - - - - - - -
04/03:00pm 21.3 S 12 13 1011.2 - 0.0 Fine Mostly clear 30 <0.5 1.0 - S
04/02:30pm 21.2 S 13 15 1011.5 - 0.0 - - - - - - -
04/02:00pm 21.2 S 11 12 1011.6 - 0.0 - - - - - - -
04/01:30pm 21.1 S 11 13 1011.8 - 0.0 - - - - - - -
04/01:00pm 21.1 S 11 12 1012.0 - 0.0 - - - - - - -
04/12:30pm 20.8 SSW 12 14 1012.3 - 0.0 - - - - - - -
04/12:00pm 20.8 SSW 8 11 1013.0 - 0.0 - - - - - - -
04/11:30am 20.2 SSW 7 9 1013.5 - 0.0 - - - - - - -
04/11:00am 19.1 SW 8 10 1014.0 - 0.0 - - - - - - -
04/10:30am 19.6 WSW 6 7 1014.2 - 0.0 - - - - - - -
04/10:00am 19.0 W 8 9 1014.2 - 0.0 - - - - - - -
04/09:30am 18.4 W 9 11 1014.5 - 0.0 - - - - - - -
04/09:00am 16.9 WNW 8 11 1014.4 - 0.0 Fine Partly cloudy 30 <0.5 1.0 - S
04/08:30am 16.1 W 9 11 1014.5 - 0.0 - - - - - - -
04/08:00am 15.9 W 7 9 1014.2 - 0.0 - - - - - - -
04/07:30am 15.3 W 9 11 1013.9 - 0.0 - - - - - - -
04/07:00am 15.5 W 8 9 1013.5 - 0.0 - - - - - - -
04/06:30am 15.5 W 8 9 1013.2 - 0.0 - - - - - - -
04/06:00am 15.6 W 6 7 1013.1 - 0.0 - - - - - - -
04/05:30am 15.6 WNW 6 6 1013.0 - 0.0 - - - - - - -
04/05:00am 15.5 W 5 6 1013.0 - 0.0 - - - - - - -
04/04:30am 16.1 NW 5 5 1013.0 - 0.0 - - - - - - -
04/04:00am 15.5 WNW 5 5 1013.3 - 0.0 - - - - - - -
04/03:30am 15.9 W 6 6 1013.5 - 0.0 - - - - - - -
04/03:00am 16.0 WNW 7 8 1013.7 - 0.0 Fine Partly cloudy 30 <0.5 1.0 - SE
04/02:30am 15.7 WNW 6 7 1014.2 - 0.0 - - - - - - -
04/02:00am 15.3 W 6 7 1014.7 - 0.0 - - - - - - -
04/01:30am 15.4 W 6 7 1014.9 - 0.0 - - - - - - -
04/01:00am 15.8 W 6 6 1015.1 - 0.0 - - - - - - -
04/12:30am 16.5 WNW 6 6 1015.4 - 0.0 - - - - - - -
04/12:00am 16.6 WNW 5 5 1015.6 - 0.0 - - - - - - -
 
Date/Time
EDT
Temp

°C
Wind Pressure Rain
since 9am
mm
Weather Cloud Vis
km
Sea
Height
m
Swell
Dir
 
Speed
knots
Gust
knots
hPa Trend Height
m
Period
s
Dir
03/11:30pm 16.7 W 5 6 1015.9 - 0.0 - - - - - - -
03/11:00pm 16.8 W 4 5 1015.9 - 0.0 - - - - - - -
03/10:30pm 17.1 W 4 5 1016.1 - 0.0 - - - - - - -
03/10:00pm 16.7 WNW 4 6 1016.3 - 0.0 - - - - - - -
03/09:30pm 17.7 SSW 4 5 1016.3 - 0.0 - - - - - - -
03/09:00pm 17.9 SSW 6 6 1015.8 - 0.0 Fine Mostly clear 30 <0.5 1.0 - NE
03/08:30pm 17.9 S 6 7 1015.7 - 0.0 - - - - - - -
03/08:00pm 18.1 S 8 8 1015.3 - 0.0 - - - - - - -
03/07:30pm 18.3 SSW 6 8 1015.3 - 0.0 - - - - - - -
03/07:00pm 19.0 SSW 7 8 1015.3 - 0.0 - - - - - - -
03/06:30pm 19.5 SSW 9 11 1015.1 - 0.0 - - - - - - -
03/06:00pm 19.5 SW 10 12 1015.1 - 0.0 - - - - - - -
03/05:30pm 19.6 SW 11 13 1015.0 - 0.0 - - - - - - -
03/05:00pm 19.3 SW 13 15 1014.9 - 0.0 - - - - - - -
03/04:30pm 19.4 SW 16 18 1014.9 - 0.0 - - - - - - -
03/04:00pm 19.5 SW 18 20 1014.9 - 0.0 - - - - - - -
03/03:30pm 19.3 SW 19 22 1014.9 - 0.0 - - - - - - -
03/03:00pm 19.3 SSW 18 21 1015.1 - 0.0 Fine Mostly cloudy 30 1 1.0 - NE
03/02:30pm 19.6 SSW 19 21 1015.5 - 0.0 - - - - - - -
03/02:00pm 19.5 SSW 19 22 1015.7 - 0.0 - - - - - - -
03/01:30pm 19.7 SW 19 21 1016.1 - 0.0 - - - - - - -
03/01:00pm 20.7 SW 11 14 1016.0 - 0.0 - - - - - - -
03/12:30pm 20.9 WSW 9 11 1016.0 - 0.0 - - - - - - -
03/12:00pm 19.9 W 9 11 1016.1 - 0.0 - - - - - - -
03/11:30am 20.1 W 10 13 1016.4 - 0.0 - - - - - - -
03/11:00am 19.6 WSW 10 12 1016.3 - 0.0 - - - - - - -
03/10:30am 19.6 WSW 10 11 1016.1 - 0.0 - - - - - - -
03/10:00am 19.4 W 11 13 1016.2 - 0.0 - - - - - - -
03/09:30am 19.1 W 11 13 1015.9 - 0.0 - - - - - - -
03/09:00am 18.7 W 11 13 1015.6 - 0.0 Fine Mostly cloudy 30 <0.5 1.0 - NE
03/08:30am 18.3 W 10 12 1015.6 - 0.0 - - - - - - -
03/08:00am 18.0 W 10 12 1015.2 - 0.0 - - - - - - -
03/07:30am 17.8 W 10 11 1014.9 - 0.0 - - - - - - -
03/07:00am 17.6 W 8 10 1014.4 - 0.0 - - - - - - -
03/06:30am 17.5 W 7 8 1014.1 - 0.0 - - - - - - -
03/06:00am 17.8 W 7 9 1013.4 - 0.0 - - - - - - -
03/05:30am 17.8 W 6 7 1013.5 - 0.0 - - - - - - -
03/05:00am 18.1 W 8 9 1013.7 - 0.0 - - - - - - -
03/04:30am 18.5 WNW 6 7 1013.2 - 0.0 - - - - - - -
03/04:00am 18.9 W 4 6 1013.6 - 0.0 - - - - - - -
03/03:30am 19.0 N 4 7 1013.3 - 0.0 - - - - - - -
03/03:00am 19.6 N 9 10 1013.1 - 0.0 Fine Mostly cloudy 30 1 1.0 - SE
03/02:30am 19.8 N 10 16 1013.4 - 0.0 - - - - - - -
03/02:00am 19.9 N 12 17 1013.6 - 0.0 - - - - - - -
03/01:30am 20.0 N 16 24 1013.7 - 0.0 - - - - - - -
03/01:00am 20.0 NNE 18 23 1013.7 - 0.0 - - - - - - -
03/12:30am 20.2 NNE 16 22 1014.7 - 0.0 - - - - - - -
03/12:00am 19.9 NNE 14 21 1015.1 - 0.0 - - - - - - -
 
Date/Time
EDT
Temp

°C
Wind Pressure Rain
since 9am
mm
Weather Cloud Vis
km
Sea
Height
m
Swell
Dir
 
Speed
knots
Gust
knots
hPa Trend Height
m
Period
s
Dir
02/11:30pm 19.7 NNE 15 19 1015.4 - 0.0 - - - - - - -
02/11:00pm 19.4 N 9 13 1015.8 - 0.0 - - - - - - -
02/10:30pm 19.6 NNE 12 17 1016.3 - 0.0 - - - - - - -
02/10:00pm 19.4 NNE 14 18 1015.9 - 0.0 - - - - - - -
02/09:30pm 19.2 NNE 13 17 1015.7 - 0.0 - - - - - - -
02/09:00pm 19.4 NNE 15 19 1015.7 - 0.0 Fine Mostly clear 40 1 1.0 - SE
02/08:30pm 19.6 NNE 16 19 1015.6 - 0.0 - - - - - - -
02/08:00pm 19.9 NNE 19 24 1015.2 - 0.0 - - - - - - -
02/07:30pm 19.9 NNE 19 24 1015.4 - 0.0 - - - - - - -
02/07:00pm 20.2 NE 21 26 1014.7 - 0.0 - - - - - - -
02/06:30pm 20.2 NE 22 26 1015.1 - 0.0 - - - - - - -
02/06:00pm 20.8 NE 18 25 1015.3 - 0.0 - - - - - - -
02/05:30pm 20.8 NNE 18 23 1015.5 - 0.0 - - - - - - -
02/05:00pm 20.2 NE 18 21 1015.9 - 0.0 - - - - - - -
02/04:30pm 20.7 NE 17 20 1016.3 - 0.0 - - - - - - -
02/04:00pm 21.0 NE 15 18 1016.5 - 0.0 - - - - - - -
02/03:30pm 20.7 NE 15 17 1017.0 - 0.0 - - - - - - -

Other Formats:

Comma delimited format used in spreadsheet applications
http://www.bom.gov.au/fwo/IDT60701/IDT60701.94933.axf

JavaScript Object Notation format (JSON) in row-major order
http://www.bom.gov.au/fwo/IDT60701/IDT60701.94933.json